Pagina principale
METAR-TAF:

METAR-TAF

Aeroporti :

Aeroporto di Perugia

Perugia, Italia

latitudine: 43-05N, longitudine: 012-30E, altezza: 208 m

Osservazione

Il bollettino è stato emesso 55 minuti fa, alle 01:50 UTC
Vento 6 kt da nord/nord-est
Temperature 15°C
Umidità 77%
Pressione 1015 hPa
Visibilità 10 km o più

METAR: LIRZ 190150Z AUTO 02006KT 9999 NCD 15/11 Q1015

Ora: 04:45 (02:45 UTC)

Previsione

Il bollettino è stato emesso 3 ore e 45 minuti fa, alle 23:00 UTC
Previsione valida dal 19 alle 00 UTC al 19 alle 24 UTC
Vento 8 kt da nord/nord-est
Visibilità 10 km o più
Poco nuvoloso ad un'altezza di 4000 ft

TAF: LIRZ 182300Z 1900/1924 03008KT 9999 FEW040

Osservazioni e previsioni meteorologiche di più di 4000 aeroporti (messaggi METAR e TAF).

Le stazioni disponibili sono rappresentate dai dischi gialli e rossi sulla carta.

Puntare il mouse per vedere il nome della stazione.

Clicca sopra per visualizzare le osservazioni e previsioni meteorologiche.

Per cambiare la mappa : fare clic sui pulsanti verdi con una croce nera per ingrandire, il pulsante verde con un trattino per diminuire, o sulla freccia verde per le mappe adiacenti.


METAR-TAF: